Terminal Aerodrome Forecast
Issued by NWS

Current Version | Previous Version | Text Only | Print | Product List | Glossary On
Versions: 1 2 3 4 5 6 7 8 9 10 11 12 13 14 15 16 17 18
606
FTUS45 KRIW 201123
TAFWRL
TAF
KWRL 201123Z 2012/2112 15006KT P6SM SCT040
     FM201800 17007KT P6SM FEW060 SCT100=

USA.gov is the U.S. government's official web portal to all federal, state and local government web resources and services.